Mc Guire Air Force Base
KWRI : now visible

Airfield :











YOU CAN JOIN US ON...

 
LOGIN :

Register | Disclaimer

   EN    FR    IT 

 









Legend :    VFR   Marginal VFR   IFR   Intensive IFR   Very Intensive IFR
Visi :
Ceiling :
>= 8 km
>= 3000ft
5 to 8 km
1000 to 3000 ft
1500m to 5 km
500 to 1000 ft
800 to 1500m
200 to 500 ft
< 800m
< 200 ft
Symbols :   Thunderstorms  Fog  Heavy snow  Heavy precipitations  Wind > 20 kt






- Airport Elevation : 131 ft
- IATA code : WRI


KWRI - Mc Guire Air Force Base

CURRENT METAR :
  • 250943Z 35003KT 10SM SCT021 14/12 A3030 RMK AO2A SLP260

EXPIRED METARs :
  • 250906Z AUTO 00000KT 10SM BKN021 15/13 A3029 RMK AO2 CIG 020 RWY18 CIG 020 RWY24 SLP256
  • 250856Z 00000KT 10SM BKN016 BKN021 15/13 A3029 RMK AO2A SLP256 T01480130 55002
  • 250837Z 31003KT 10SM OVC015 15/14 A3029 RMK AO2A SLP256
  • 250807Z AUTO 36003KT 10SM OVC012 16/15 A3028 RMK AO2 SLP253
  • 250756Z 00000KT 10SM BKN008 OVC012 16/15 A3028 RMK AO2A SLP253 T01550145
  • 250730Z AUTO 00000KT 10SM BKN005 OVC009 15/14 A3028 RMK AO2 BKN V OVC SLP253
  • 250656Z AUTO 00000KT 10SM OVC008 14/12 A3028 RMK AO2 SLP253 T01430122

TAF AMD TAF KWRI
Valid from the 25 at 09:00 until the 26 at 08:00 UTC


250930Z 2509/2608 03005KT 9999 BKN020 QNH3027INS
BECMG 2515/2516 20008KT 9999 BKN030 QNH3029INS
BECMG 2520/2521 19009KT 9999 SCT050 QNH3024INS
BECMG 2604/2605 17006KT 9999 BKN020 QNH3025INS TX27/2520Z TN14/2509Z
KZNY FIR / North America



MET'MAP, your aeronautical weather chart ! - Copyright ORBIFLY December 2007 - Disclaimer

ORBIFLY MET'MAP TEAM :

Programming & Development : Alexandra Zaïnal
Concept & original design : Baudouin d'Aumeries
Assistance for programming : Marc-Olivier Méhu
Technical & hardware support : Manuel Goepfert

Contact : metmap@orbifly.com




SOURCES & CREDITS :

   NOAA       Earth
Advisory